Lanark Village, Florida
Current Conditions -  °F | °C
As of 7:53 AM on Friday 31 Oct 2014 (Local Time) from KAAF Reporting Station
Clear Clear  
Wind Chill: 47°   Ceiling: Unl
Heat Index: 49°   Visibility: 10mi
Dew Point: 43°   Wind: 5mph
Humidity: 80%   Direction: 330°NNW
Pressure: 29.96"   Gusts: NA
Location:  29.88°N, 84.6°W
Report Text: KAAF 311153Z AUTO 33004KT 10SM CLR 09/06 A2996 RMK AO2 SLP146 T00940061 10139 20094 53010 TSNO $
Loading
Personal Weather Stations






























Interactive Weather Map New forecast layout! Learn more

10-Day Weather Forecast

Advertisements
Track Severe Weather on mobile